createdAt,value
2023-10-09T00:02:18.226Z,4.20
2023-10-09T00:04:53.831Z,4.00
2023-10-09T00:07:27.199Z,4.02
2023-10-09T00:10:00.648Z,4.07
2023-10-09T00:12:34.233Z,3.92
2023-10-09T00:15:10.941Z,4.15
2023-10-09T00:28:06.173Z,3.86
2023-10-09T00:30:50.243Z,4.04
2023-10-09T00:33:23.570Z,3.64
2023-10-09T00:35:57.358Z,3.53
2023-10-09T00:38:30.430Z,3.67
2023-10-09T00:41:04.211Z,3.40
2023-10-09T00:54:16.619Z,3.75
2023-10-09T00:56:50.548Z,3.59
2023-10-09T00:59:24.190Z,3.31
2023-10-09T01:01:58.816Z,3.58
2023-10-09T01:04:33.369Z,3.32
2023-10-09T01:21:11.181Z,3.69
2023-10-09T01:23:54.268Z,3.78
2023-10-09T01:26:27.578Z,3.48
2023-10-09T01:29:01.186Z,3.60
2023-10-09T01:31:34.508Z,3.55
2023-10-09T01:34:08.229Z,3.50
2023-10-09T01:36:43.113Z,3.54
2023-10-09T01:46:08.263Z,3.41
2023-10-09T01:48:41.515Z,3.46
2023-10-09T01:51:21.317Z,3.72
2023-10-09T01:53:54.462Z,3.53
2023-10-09T01:56:28.208Z,3.35
2023-10-09T01:59:01.519Z,3.50
2023-10-09T02:01:37.208Z,3.18
2023-10-09T02:14:47.179Z,3.53
2023-10-09T02:17:22.795Z,3.36
2023-10-09T02:19:56.210Z,3.33
2023-10-09T02:22:29.487Z,3.40
2023-10-09T02:25:03.218Z,3.40
2023-10-09T02:40:19.200Z,3.14
2023-10-09T02:42:59.370Z,3.02
2023-10-09T02:45:32.539Z,3.41
2023-10-09T02:48:06.289Z,3.09
2023-10-09T02:50:39.530Z,3.42
2023-10-09T02:53:13.213Z,3.34
2023-10-09T02:55:48.402Z,3.48
2023-10-09T03:08:37.184Z,3.13
2023-10-09T03:11:19.186Z,3.05
2023-10-09T03:13:52.454Z,2.97
2023-10-09T03:16:26.216Z,3.19
2023-10-09T03:18:59.443Z,2.93
2023-10-09T03:21:33.233Z,3.03
2023-10-09T03:34:45.225Z,3.15
2023-10-09T03:37:18.475Z,3.32
2023-10-09T03:39:58.201Z,3.19
2023-10-09T03:42:31.697Z,3.25
2023-10-09T03:45:05.365Z,3.15
2023-10-09T04:01:42.204Z,3.74
2023-10-09T04:04:22.311Z,4.14
2023-10-09T04:06:55.446Z,3.94
2023-10-09T04:09:29.238Z,4.19
2023-10-09T04:12:02.548Z,4.39
2023-10-09T04:14:36.206Z,4.86
2023-10-09T04:27:48.228Z,4.94
2023-10-09T04:30:21.501Z,5.07
2023-10-09T04:32:55.257Z,5.00
2023-10-09T04:35:31.504Z,5.43
2023-10-09T04:38:12.195Z,5.05
2023-10-09T04:40:45.405Z,5.17
2023-10-09T04:53:36.173Z,5.67
2023-10-09T04:56:16.188Z,5.44
2023-10-09T04:58:49.424Z,5.53
2023-10-09T05:01:23.224Z,5.58
2023-10-09T05:03:56.483Z,5.29
2023-10-09T05:06:30.280Z,5.46
2023-10-09T05:19:54.222Z,6.01
2023-10-09T05:22:27.515Z,6.07
2023-10-09T05:25:01.218Z,6.19
2023-10-09T05:27:34.582Z,5.97
2023-10-09T05:30:08.206Z,5.83
2023-10-09T05:32:41.491Z,6.09
2023-10-09T05:35:17.206Z,5.95
2023-10-09T05:48:27.219Z,5.91
2023-10-09T05:51:02.433Z,5.69
2023-10-09T05:53:36.377Z,5.93
2023-10-09T05:56:09.627Z,5.47
2023-10-09T05:58:43.215Z,5.81
2023-10-09T06:01:16.534Z,5.54
2023-10-09T06:14:08.172Z,5.17
2023-10-09T06:16:49.223Z,5.44
2023-10-09T06:19:22.518Z,5.26
2023-10-09T06:21:56.200Z,5.38
2023-10-09T06:24:29.645Z,5.31
2023-10-09T06:40:09.181Z,4.95
2023-10-09T06:42:42.458Z,4.60
2023-10-09T06:45:18.242Z,4.62
2023-10-09T06:47:51.533Z,4.51
2023-10-09T06:50:25.248Z,4.57
2023-10-09T06:52:58.517Z,4.52
2023-10-09T06:55:34.362Z,4.55
2023-10-09T07:08:44.215Z,4.79
2023-10-09T07:11:19.371Z,5.06
2023-10-09T07:13:53.212Z,5.04
2023-10-09T07:16:26.433Z,4.74
2023-10-09T07:19:00.175Z,4.53
2023-10-09T07:21:33.479Z,4.85
2023-10-09T07:34:24.183Z,5.10
2023-10-09T07:37:04.224Z,5.44
2023-10-09T07:39:39.209Z,5.35
2023-10-09T07:42:13.289Z,5.25
2023-10-09T07:44:46.588Z,5.62
2023-10-09T08:01:04.326Z,6.34
2023-10-09T08:03:38.056Z,6.83
2023-10-09T08:06:12.247Z,6.72
2023-10-09T08:08:48.506Z,6.63
2023-10-09T08:11:29.215Z,6.91
2023-10-09T08:14:02.501Z,6.68
2023-10-09T08:16:38.230Z,6.69
2023-10-09T08:27:07.224Z,6.77
2023-10-09T08:29:47.211Z,6.92
2023-10-09T08:35:05.343Z,7.19
2023-10-09T08:37:38.482Z,7.17
2023-10-09T08:40:14.202Z,7.17
2023-10-09T08:53:53.215Z,7.06
2023-10-09T08:56:26.463Z,6.96
2023-10-09T08:59:03.290Z,6.94
2023-10-09T09:01:36.562Z,7.02
2023-10-09T09:04:10.264Z,7.31
2023-10-09T09:06:43.453Z,7.26
2023-10-09T09:23:05.083Z,7.04
2023-10-09T09:25:44.312Z,6.95
2023-10-09T09:28:24.215Z,6.94
2023-10-09T09:31:08.552Z,6.20
2023-10-09T09:33:49.198Z,6.71
2023-10-09T09:36:38.102Z,6.40
2023-10-09T09:49:35.175Z,5.53
2023-10-09T09:52:15.194Z,5.37
2023-10-09T09:54:48.487Z,5.09
2023-10-09T09:57:26.201Z,4.80
2023-10-09T10:00:00.474Z,4.79
2023-10-09T10:16:17.213Z,3.24
2023-10-09T10:18:55.977Z,3.11
2023-10-09T10:21:37.179Z,3.08
2023-10-09T10:24:42.935Z,3.04
2023-10-09T10:27:23.181Z,3.71
2023-10-09T10:30:29.781Z,3.69
2023-10-09T10:40:45.257Z,3.22
2023-10-09T10:43:20.385Z,2.96
2023-10-09T10:45:54.182Z,3.00
2023-10-09T10:48:27.545Z,2.62
2023-10-09T10:51:05.199Z,2.63
2023-10-09T10:53:38.686Z,2.73
2023-10-09T10:56:12.373Z,2.43
2023-10-09T11:09:24.222Z,2.32
2023-10-09T11:12:06.171Z,2.43
2023-10-09T11:14:53.287Z,2.53
2023-10-09T11:17:26.729Z,2.37
2023-10-09T11:20:00.326Z,2.40
2023-10-09T11:36:42.163Z,2.42
2023-10-09T11:39:34.200Z,2.37
2023-10-09T11:42:08.957Z,2.32
2023-10-09T11:44:47.225Z,2.31
2023-10-09T11:47:20.881Z,2.51
2023-10-09T11:49:56.209Z,2.80
2023-10-09T12:03:08.241Z,3.26
2023-10-09T12:05:41.971Z,3.04
2023-10-09T12:08:15.234Z,3.22
2023-10-09T12:10:56.984Z,3.12
2023-10-09T12:13:37.213Z,3.24
2023-10-09T12:16:10.975Z,2.97
2023-10-09T12:29:01.191Z,2.78
2023-10-09T12:31:41.235Z,2.54
2023-10-09T12:34:16.211Z,2.45
2023-10-09T12:36:52.183Z,2.56
2023-10-09T12:39:25.402Z,2.55
2023-10-09T12:41:59.271Z,2.40
2023-10-09T12:55:12.227Z,2.05
2023-10-09T12:57:45.432Z,2.04
2023-10-09T13:00:25.249Z,2.24
2023-10-09T13:02:58.764Z,2.26
2023-10-09T13:05:32.184Z,2.18
2023-10-09T13:08:12.398Z,1.86
2023-10-09T13:10:54.309Z,2.06
2023-10-09T13:21:24.165Z,2.11
2023-10-09T13:24:04.350Z,2.07
2023-10-09T13:26:40.149Z,2.33
2023-10-09T13:29:14.710Z,2.31
2023-10-09T13:31:49.832Z,2.46
2023-10-09T13:34:23.220Z,2.38
2023-10-09T13:36:56.454Z,2.21
2023-10-09T13:49:47.172Z,2.75
2023-10-09T13:52:27.187Z,2.54
2023-10-09T13:55:00.449Z,2.53
2023-10-09T13:57:34.170Z,2.79
2023-10-09T14:00:09.262Z,2.90
2023-10-09T14:16:32.198Z,3.07
2023-10-09T14:19:05.503Z,3.00
2023-10-09T14:21:39.265Z,3.19
2023-10-09T14:24:12.456Z,3.01
2023-10-09T14:26:46.301Z,3.08
2023-10-09T14:29:19.495Z,2.97
2023-10-09T14:31:55.247Z,2.93
2023-10-09T14:41:40.183Z,2.98
2023-10-09T14:44:20.269Z,2.89
2023-10-09T14:46:55.386Z,3.01
2023-10-09T14:49:29.166Z,2.86
2023-10-09T14:52:02.611Z,2.99
2023-10-09T14:54:36.173Z,2.92
2023-10-09T14:57:09.411Z,3.12
2023-10-09T15:10:00.177Z,3.31
2023-10-09T15:12:44.426Z,2.91
2023-10-09T15:15:18.737Z,3.08
2023-10-09T15:17:52.288Z,2.90
2023-10-09T15:20:25.541Z,2.95
2023-10-09T15:36:41.189Z,2.69
2023-10-09T15:39:14.619Z,2.59
2023-10-09T15:41:48.236Z,2.77
2023-10-09T15:44:21.492Z,2.56
2023-10-09T15:46:55.223Z,2.81
2023-10-09T15:49:28.953Z,2.80
2023-10-09T15:52:04.203Z,2.74
2023-10-09T16:01:54.259Z,2.80
2023-10-09T16:04:34.183Z,2.93
2023-10-09T16:07:09.465Z,2.93
2023-10-09T16:09:43.199Z,2.92
2023-10-09T16:12:16.430Z,2.79
2023-10-09T16:14:50.200Z,3.01
2023-10-09T16:28:41.303Z,2.80
2023-10-09T16:31:14.465Z,2.73
2023-10-09T16:33:48.261Z,3.09
2023-10-09T16:36:21.493Z,2.80
2023-10-09T16:38:55.172Z,2.83
2023-10-09T16:41:28.447Z,2.68
2023-10-09T17:00:18.265Z,2.61
2023-10-09T17:02:45.814Z,2.64
2023-10-09T17:05:26.221Z,2.89
2023-10-09T17:08:00.648Z,2.70
2023-10-09T17:10:34.168Z,2.76
2023-10-09T17:23:46.191Z,2.39
2023-10-09T17:26:19.650Z,2.29
2023-10-09T17:28:53.300Z,2.43
2023-10-09T17:31:26.579Z,2.23
2023-10-09T17:34:00.368Z,2.44
2023-10-09T17:36:33.434Z,2.41
2023-10-09T17:49:24.145Z,2.89
2023-10-09T17:52:04.175Z,3.19
2023-10-09T17:54:37.996Z,3.50
2023-10-09T17:57:11.179Z,3.71
2023-10-09T17:59:44.427Z,3.77
2023-10-09T18:02:20.521Z,3.88
2023-10-09T18:15:41.187Z,4.29
2023-10-09T18:18:14.536Z,4.54
2023-10-09T18:20:48.189Z,4.44
2023-10-09T18:23:21.486Z,4.53
2023-10-09T18:25:55.246Z,4.36
2023-10-09T18:28:28.547Z,4.61
2023-10-09T18:31:04.223Z,4.53
2023-10-09T18:44:14.299Z,4.84
2023-10-09T18:46:49.518Z,4.70
2023-10-09T18:49:23.174Z,4.58
2023-10-09T18:51:56.912Z,4.43
2023-10-09T18:54:30.190Z,4.72
2023-10-09T18:57:03.633Z,4.14
2023-10-09T19:09:54.164Z,4.13
2023-10-09T19:12:34.216Z,4.04
2023-10-09T19:15:09.469Z,4.25
2023-10-09T19:17:43.256Z,3.73
2023-10-09T19:20:16.484Z,4.04
2023-10-09T19:36:32.186Z,3.58
2023-10-09T19:39:05.502Z,3.65
2023-10-09T19:41:53.257Z,3.57
2023-10-09T19:44:26.494Z,3.24
2023-10-09T19:47:00.225Z,3.34
2023-10-09T19:49:34.022Z,3.07
2023-10-09T19:52:09.206Z,3.12
2023-10-09T20:02:39.263Z,2.90
2023-10-09T20:05:21.241Z,3.02
2023-10-09T20:07:56.405Z,3.40
2023-10-09T20:10:30.202Z,3.43
2023-10-09T20:13:03.967Z,3.27
2023-10-09T20:15:37.168Z,3.19
2023-10-09T20:29:23.256Z,3.36
2023-10-09T20:31:56.555Z,3.14
2023-10-09T20:34:30.177Z,3.05
2023-10-09T20:37:03.445Z,3.25
2023-10-09T20:39:37.180Z,2.96
2023-10-09T20:42:10.435Z,3.01
2023-10-09T20:44:46.270Z,2.86
2023-10-09T20:47:19.444Z,3.02
2023-10-09T20:56:43.201Z,2.71
2023-10-09T20:59:16.614Z,2.77
2023-10-09T21:01:52.353Z,2.75
2023-10-09T21:04:25.497Z,2.67
2023-10-09T21:06:59.170Z,2.83
2023-10-09T21:09:32.477Z,3.02
2023-10-09T21:12:06.177Z,3.23
2023-10-09T21:25:18.165Z,3.79
2023-10-09T21:27:53.156Z,4.08
2023-10-09T21:30:27.203Z,3.78
2023-10-09T21:33:00.705Z,3.72
2023-10-09T21:35:36.213Z,3.94
2023-10-09T21:49:32.267Z,3.76
2023-10-09T21:52:07.429Z,4.14
2023-10-09T21:54:41.201Z,3.64
2023-10-09T21:57:14.497Z,3.82
2023-10-09T21:59:48.156Z,3.55
2023-10-09T22:02:21.572Z,3.41
2023-10-09T22:04:55.211Z,3.47
2023-10-09T22:07:32.849Z,3.47
2023-10-09T22:17:27.246Z,3.73
2023-10-09T22:20:00.481Z,3.75
2023-10-09T22:22:36.201Z,3.93
2023-10-09T22:25:09.737Z,3.75
2023-10-09T22:27:43.195Z,4.07
2023-10-09T22:30:17.155Z,3.95
2023-10-09T22:43:12.385Z,4.24
2023-10-09T22:45:52.360Z,3.97
2023-10-09T22:48:25.414Z,4.34
2023-10-09T22:50:59.341Z,4.18
2023-10-09T22:53:32.454Z,4.07
2023-10-09T22:56:07.209Z,4.23
2023-10-09T23:09:58.162Z,3.64
2023-10-09T23:12:31.410Z,3.58
2023-10-09T23:15:05.190Z,3.74
2023-10-09T23:17:38.442Z,3.44
2023-10-09T23:20:14.226Z,3.56
2023-10-09T23:22:47.430Z,3.37
2023-10-09T23:25:23.179Z,3.37
2023-10-09T23:38:33.604Z,3.36
2023-10-09T23:41:09.395Z,3.39
2023-10-09T23:43:43.169Z,3.36
2023-10-09T23:46:16.449Z,3.70
2023-10-09T23:48:57.185Z,3.59
2023-10-09T23:51:30.397Z,3.79
